createdAt,value
2022-09-27T00:01:38.711Z,11.50
2022-09-27T00:04:06.524Z,11.70
2022-09-27T00:06:39.925Z,11.50
2022-09-27T00:09:08.786Z,11.70
2022-09-27T00:11:38.856Z,11.30
2022-09-27T00:14:08.146Z,11.50
2022-09-27T00:16:38.750Z,11.80
2022-09-27T00:19:08.974Z,11.50
2022-09-27T00:21:38.139Z,11.30
2022-09-27T00:24:06.388Z,11.40
2022-09-27T00:26:34.165Z,11.50
2022-09-27T00:29:02.009Z,11.70
2022-09-27T00:31:31.511Z,11.40
2022-09-27T00:34:01.823Z,11.20
2022-09-27T00:36:30.664Z,11.20
2022-09-27T00:39:00.863Z,11.40
2022-09-27T00:41:32.040Z,11.50
2022-09-27T00:44:01.824Z,11.30
2022-09-27T00:46:33.546Z,11.30
2022-09-27T00:49:08.258Z,11.20
2022-09-27T00:51:40.313Z,11.20
2022-09-27T00:54:12.514Z,11.00
2022-09-27T00:56:43.385Z,11.20
2022-09-27T00:59:17.478Z,11.30
2022-09-27T01:01:45.962Z,11.00
2022-09-27T01:04:16.621Z,11.30
2022-09-27T01:06:44.397Z,11.40
2022-09-27T01:09:14.188Z,11.20
2022-09-27T01:11:46.106Z,11.20
2022-09-27T01:14:42.127Z,11.30
2022-09-27T01:17:21.649Z,11.30
2022-09-27T01:20:25.604Z,11.40
2022-09-27T01:23:11.096Z,11.20
2022-09-27T01:25:57.762Z,11.50
2022-09-27T01:28:43.184Z,11.70
2022-09-27T01:31:20.315Z,11.40
2022-09-27T01:33:54.311Z,11.40
2022-09-27T01:36:29.784Z,11.60
2022-09-27T01:39:12.128Z,11.60
2022-09-27T01:41:47.935Z,11.50
2022-09-27T01:44:24.265Z,11.80
2022-09-27T01:46:56.297Z,11.50
2022-09-27T01:49:31.756Z,11.60
2022-09-27T01:52:02.472Z,11.40
2022-09-27T01:54:36.979Z,11.50
2022-09-27T01:57:07.341Z,11.60
2022-09-27T01:59:38.810Z,11.60
2022-09-27T02:02:12.168Z,11.50
2022-09-27T02:04:43.265Z,11.30
2022-09-27T02:07:15.608Z,11.70
2022-09-27T02:09:49.632Z,11.40
2022-09-27T02:12:23.370Z,11.40
2022-09-27T02:14:54.649Z,11.50
2022-09-27T02:17:32.380Z,11.30
2022-09-27T02:20:08.924Z,11.50
2022-09-27T02:22:39.730Z,11.70
2022-09-27T02:25:14.871Z,11.70
2022-09-27T02:27:53.556Z,11.50
2022-09-27T02:30:21.592Z,11.60
2022-09-27T02:32:50.786Z,11.70
2022-09-27T02:35:23.384Z,11.80
2022-09-27T02:37:51.929Z,11.80
2022-09-27T02:40:20.583Z,12.00
2022-09-27T02:42:48.627Z,12.00
2022-09-27T02:45:19.646Z,12.00
2022-09-27T02:48:03.600Z,11.70
2022-09-27T02:50:50.864Z,11.50
2022-09-27T02:53:29.277Z,11.90
2022-09-27T02:56:04.269Z,11.50
2022-09-27T02:58:50.494Z,11.70
2022-09-27T03:01:27.787Z,11.60
2022-09-27T03:04:04.167Z,11.50
2022-09-27T03:06:34.048Z,11.60
2022-09-27T03:09:01.866Z,11.50
2022-09-27T03:11:29.629Z,11.90
2022-09-27T03:14:08.288Z,11.60
2022-09-27T03:16:36.584Z,11.70
2022-09-27T03:19:05.792Z,11.70
2022-09-27T03:21:33.557Z,11.60
2022-09-27T03:24:01.563Z,11.70
2022-09-27T03:26:29.577Z,11.70
2022-09-27T03:28:57.371Z,11.70
2022-09-27T03:31:25.277Z,11.80
2022-09-27T03:33:53.099Z,11.70
2022-09-27T03:36:22.251Z,11.50
2022-09-27T03:38:50.071Z,11.60
2022-09-27T03:41:17.944Z,11.70
2022-09-27T03:43:45.725Z,11.80
2022-09-27T03:46:13.578Z,11.60
2022-09-27T03:48:42.519Z,11.50
2022-09-27T03:51:12.092Z,11.50
2022-09-27T03:53:41.224Z,11.60
2022-09-27T03:56:09.020Z,11.40
2022-09-27T03:58:36.833Z,11.50
2022-09-27T04:01:04.783Z,11.50
2022-09-27T04:03:32.653Z,11.60
2022-09-27T04:06:00.787Z,11.60
2022-09-27T04:08:28.596Z,11.50
2022-09-27T04:10:58.308Z,11.40
2022-09-27T04:13:26.184Z,11.40
2022-09-27T04:15:54.149Z,11.40
2022-09-27T04:18:21.940Z,11.50
2022-09-27T04:20:49.738Z,11.40
2022-09-27T04:23:17.859Z,11.50
2022-09-27T04:25:45.625Z,11.60
2022-09-27T04:28:15.726Z,11.60
2022-09-27T04:30:43.566Z,11.60
2022-09-27T04:33:11.395Z,11.70
2022-09-27T04:35:56.986Z,11.70
2022-09-27T04:38:24.788Z,11.40
2022-09-27T04:40:52.658Z,11.60
2022-09-27T04:43:21.928Z,11.60
2022-09-27T04:45:49.813Z,11.70
2022-09-27T04:48:17.654Z,11.70
2022-09-27T04:50:45.442Z,11.70
2022-09-27T04:53:14.915Z,11.60
2022-09-27T04:55:46.956Z,11.70
2022-09-27T04:58:14.755Z,11.80
2022-09-27T05:00:43.914Z,11.70
2022-09-27T05:03:11.716Z,11.50
2022-09-27T05:05:39.530Z,11.70
2022-09-27T05:08:07.300Z,11.70
2022-09-27T05:10:35.075Z,11.80
2022-09-27T05:13:02.875Z,11.80
2022-09-27T05:15:30.690Z,11.80
2022-09-27T05:17:59.844Z,11.90
2022-09-27T05:20:27.919Z,11.80
2022-09-27T05:22:55.766Z,11.80
2022-09-27T05:25:23.672Z,11.50
2022-09-27T05:27:52.137Z,11.70
2022-09-27T05:30:20.192Z,11.80
2022-09-27T05:32:49.218Z,11.50
2022-09-27T05:35:19.313Z,11.80
2022-09-27T05:37:53.047Z,11.70
2022-09-27T05:40:40.406Z,11.80
2022-09-27T05:43:09.151Z,11.60
2022-09-27T05:45:37.048Z,11.70
2022-09-27T05:48:05.226Z,11.60
2022-09-27T05:50:34.467Z,11.80
2022-09-27T05:53:02.292Z,11.60
2022-09-27T05:55:30.425Z,11.70
2022-09-27T05:57:59.765Z,11.70
2022-09-27T06:00:28.677Z,11.60
2022-09-27T06:02:57.456Z,11.50
2022-09-27T06:05:26.391Z,11.50
2022-09-27T06:07:59.937Z,11.80
2022-09-27T06:10:28.838Z,11.50
2022-09-27T06:13:01.091Z,11.70
2022-09-27T06:15:28.907Z,11.60
2022-09-27T06:17:56.808Z,11.80
2022-09-27T06:20:24.628Z,11.80
2022-09-27T06:22:54.070Z,11.80
2022-09-27T06:25:23.184Z,11.80
2022-09-27T06:27:51.124Z,11.70
2022-09-27T06:30:20.513Z,11.70
2022-09-27T06:32:48.528Z,11.60
2022-09-27T06:35:16.379Z,11.70
2022-09-27T06:37:44.144Z,11.80
2022-09-27T06:40:12.043Z,11.80
2022-09-27T06:42:41.179Z,11.90
2022-09-27T06:45:09.596Z,11.80
2022-09-27T06:47:37.637Z,11.70
2022-09-27T06:50:06.486Z,11.80
2022-09-27T06:52:34.970Z,12.00
2022-09-27T06:55:03.249Z,11.90
2022-09-27T06:57:49.204Z,12.30
2022-09-27T07:00:24.495Z,12.20
2022-09-27T07:02:52.291Z,12.20
2022-09-27T07:05:20.849Z,12.20
2022-09-27T07:07:49.043Z,12.10
2022-09-27T07:10:18.101Z,12.20
2022-09-27T07:12:48.694Z,12.20
2022-09-27T07:15:18.560Z,12.20
2022-09-27T07:17:46.964Z,12.20
2022-09-27T07:20:14.989Z,12.40
2022-09-27T07:22:45.426Z,12.40
2022-09-27T07:25:13.341Z,12.30
2022-09-27T07:27:42.163Z,12.00
2022-09-27T07:30:11.882Z,12.50
2022-09-27T07:32:42.231Z,12.10
2022-09-27T07:35:12.069Z,12.50
2022-09-27T07:37:39.899Z,12.50
2022-09-27T07:40:09.835Z,12.50
2022-09-27T07:42:38.859Z,12.50
2022-09-27T07:45:09.313Z,12.30
2022-09-27T07:47:38.716Z,12.50
2022-09-27T07:50:10.572Z,12.20
2022-09-27T07:52:41.985Z,12.10
2022-09-27T07:55:11.585Z,12.10
2022-09-27T07:57:39.801Z,12.50
2022-09-27T08:00:10.257Z,12.50
2022-09-27T08:02:38.164Z,12.10
2022-09-27T08:05:08.964Z,12.10
2022-09-27T08:07:37.154Z,12.50
2022-09-27T08:10:05.431Z,12.70
2022-09-27T08:12:33.683Z,12.50
2022-09-27T08:15:02.718Z,12.50
2022-09-27T08:17:30.509Z,12.60
2022-09-27T08:19:58.747Z,12.60
2022-09-27T08:22:27.899Z,12.30
2022-09-27T08:24:55.763Z,12.30
2022-09-27T08:27:23.576Z,12.50
2022-09-27T08:29:51.382Z,12.20
2022-09-27T08:32:23.016Z,12.40
2022-09-27T08:34:51.319Z,12.30
2022-09-27T08:37:19.091Z,12.40
2022-09-27T08:39:48.419Z,12.90
2022-09-27T08:42:28.263Z,12.90
2022-09-27T08:45:03.669Z,12.90
2022-09-27T08:47:37.854Z,13.10
2022-09-27T08:50:15.931Z,13.10
2022-09-27T08:52:48.192Z,13.00
2022-09-27T08:55:23.138Z,13.20
2022-09-27T08:57:54.580Z,12.60
2022-09-27T09:00:23.263Z,12.90
2022-09-27T09:02:51.204Z,12.80
2022-09-27T09:05:25.959Z,12.60
2022-09-27T09:08:06.653Z,12.50
2022-09-27T09:11:07.219Z,12.70
2022-09-27T09:13:53.820Z,12.70
2022-09-27T09:16:28.575Z,12.70
2022-09-27T09:19:13.150Z,12.30
2022-09-27T09:21:49.131Z,12.70
2022-09-27T09:24:31.160Z,12.80
2022-09-27T09:27:07.976Z,12.80
2022-09-27T09:30:06.880Z,13.00
2022-09-27T09:32:45.573Z,13.30
2022-09-27T09:35:16.929Z,13.60
2022-09-27T09:37:48.966Z,13.30
2022-09-27T09:40:23.329Z,13.70
2022-09-27T09:42:58.391Z,14.00
2022-09-27T09:45:30.348Z,13.50
2022-09-27T09:48:04.277Z,13.80
2022-09-27T09:50:36.403Z,13.60
2022-09-27T09:53:13.018Z,13.50
2022-09-27T09:55:43.286Z,13.40
2022-09-27T09:58:22.608Z,13.10
2022-09-27T10:00:53.663Z,13.30
2022-09-27T10:03:21.480Z,13.40
2022-09-27T10:05:49.424Z,13.40
2022-09-27T10:08:21.396Z,13.70
2022-09-27T10:10:49.512Z,13.60
2022-09-27T10:13:21.506Z,13.70
2022-09-27T10:15:55.989Z,13.50
2022-09-27T10:18:26.306Z,13.30
2022-09-27T10:20:58.131Z,13.50
2022-09-27T10:23:26.541Z,13.20
2022-09-27T10:25:56.723Z,13.00
2022-09-27T10:28:32.833Z,12.90
2022-09-27T10:31:01.697Z,12.90
2022-09-27T10:33:31.550Z,12.80
2022-09-27T10:36:00.944Z,12.80
2022-09-27T10:38:31.059Z,12.30
2022-09-27T10:41:16.553Z,12.40
2022-09-27T10:43:45.768Z,12.70
2022-09-27T10:46:22.852Z,12.60
2022-09-27T10:49:09.120Z,12.80
2022-09-27T10:51:37.824Z,12.60
2022-09-27T10:54:06.582Z,12.80
2022-09-27T10:56:36.716Z,12.50
2022-09-27T10:59:06.032Z,13.00
2022-09-27T11:01:41.783Z,13.10
2022-09-27T11:04:22.376Z,13.10
2022-09-27T11:06:50.441Z,13.50
2022-09-27T11:09:24.325Z,13.50
2022-09-27T11:11:52.410Z,13.60
2022-09-27T11:14:23.843Z,13.60
2022-09-27T11:17:13.980Z,14.20
2022-09-27T11:19:55.407Z,14.90
2022-09-27T11:22:35.560Z,15.90
2022-09-27T11:25:16.436Z,16.20
2022-09-27T11:28:00.024Z,16.00
2022-09-27T11:30:37.587Z,16.60
2022-09-27T11:33:31.099Z,16.40
2022-09-27T11:36:07.304Z,16.00
2022-09-27T11:38:53.257Z,15.70
2022-09-27T11:41:33.830Z,15.20
2022-09-27T11:44:28.732Z,14.90
2022-09-27T11:47:12.092Z,14.60
2022-09-27T11:50:18.340Z,14.50
2022-09-27T11:52:59.660Z,14.40
2022-09-27T11:55:39.624Z,14.20
2022-09-27T11:58:16.829Z,13.80
2022-09-27T12:00:58.995Z,13.70
2022-09-27T12:04:00.571Z,13.10
2022-09-27T12:06:38.344Z,13.00
2022-09-27T12:09:11.312Z,13.00
2022-09-27T12:11:44.144Z,12.80
2022-09-27T12:14:20.903Z,12.60
2022-09-27T12:16:52.634Z,12.90
2022-09-27T12:19:26.891Z,12.70
2022-09-27T12:21:57.629Z,12.80
2022-09-27T12:24:26.201Z,12.60
2022-09-27T12:26:56.128Z,12.40
2022-09-27T12:29:29.818Z,12.60
2022-09-27T12:32:05.855Z,12.80
2022-09-27T12:34:39.888Z,13.50
2022-09-27T12:37:13.607Z,14.20
2022-09-27T12:39:51.541Z,14.80
2022-09-27T12:42:24.691Z,15.60
2022-09-27T12:44:53.189Z,16.10
2022-09-27T12:47:41.120Z,16.40
2022-09-27T12:50:19.924Z,16.80
2022-09-27T12:52:53.441Z,17.20
2022-09-27T12:55:52.252Z,17.20
2022-09-27T12:58:38.025Z,17.60
2022-09-27T13:01:17.847Z,17.40
2022-09-27T13:04:05.066Z,17.10
2022-09-27T13:06:48.452Z,16.90
2022-09-27T13:09:30.603Z,17.00
2022-09-27T13:12:10.871Z,16.40
2022-09-27T13:14:44.416Z,16.30
2022-09-27T13:17:33.853Z,15.80
2022-09-27T13:20:42.497Z,15.60
2022-09-27T13:23:58.864Z,15.20
2022-09-27T13:26:49.994Z,15.00
2022-09-27T13:29:30.091Z,14.50
2022-09-27T13:32:23.146Z,14.10
2022-09-27T13:34:53.593Z,14.00
2022-09-27T13:37:47.986Z,13.90
2022-09-27T13:40:28.306Z,14.10
2022-09-27T13:43:28.008Z,14.10
2022-09-27T13:45:58.612Z,14.00
2022-09-27T13:48:31.594Z,14.00
2022-09-27T13:51:08.906Z,14.20
2022-09-27T13:53:39.260Z,14.30
2022-09-27T13:56:28.019Z,14.20
2022-09-27T13:59:00.172Z,14.20
2022-09-27T14:01:32.747Z,14.10
2022-09-27T14:04:04.538Z,14.00
2022-09-27T14:06:36.317Z,14.20
2022-09-27T14:09:06.120Z,13.50
2022-09-27T14:11:38.763Z,13.90
2022-09-27T14:14:16.323Z,14.20
2022-09-27T14:16:47.429Z,14.50
2022-09-27T14:19:19.022Z,14.40
2022-09-27T14:21:47.442Z,14.80
2022-09-27T14:24:30.104Z,14.30
2022-09-27T14:27:12.771Z,14.70
2022-09-27T14:29:46.569Z,14.90
2022-09-27T14:32:16.396Z,14.90
2022-09-27T14:34:44.460Z,15.40
2022-09-27T14:37:25.804Z,15.20
2022-09-27T14:39:59.182Z,15.20
2022-09-27T14:42:29.283Z,15.50
2022-09-27T14:45:02.351Z,15.10
2022-09-27T14:47:30.057Z,15.10
2022-09-27T14:50:00.763Z,15.20
2022-09-27T14:52:31.849Z,14.90
2022-09-27T14:55:02.429Z,15.30
2022-09-27T14:57:33.936Z,15.10
2022-09-27T15:00:16.994Z,15.10
2022-09-27T15:02:45.405Z,15.40
2022-09-27T15:05:17.079Z,15.30
2022-09-27T15:07:46.209Z,15.40
2022-09-27T15:10:17.724Z,15.30
2022-09-27T15:12:48.941Z,15.30
2022-09-27T15:15:23.636Z,14.70
2022-09-27T15:17:51.523Z,14.80
2022-09-27T15:20:25.989Z,14.10
2022-09-27T15:22:53.988Z,13.70
2022-09-27T15:25:34.669Z,13.90
2022-09-27T15:28:05.411Z,13.80
2022-09-27T15:30:39.399Z,13.80
2022-09-27T15:33:08.712Z,13.70
2022-09-27T15:35:37.536Z,13.30
2022-09-27T15:38:37.914Z,13.40
2022-09-27T15:41:12.911Z,13.40
2022-09-27T15:43:45.372Z,13.10
2022-09-27T15:46:39.031Z,13.10
2022-09-27T15:49:22.838Z,12.90
2022-09-27T15:51:52.420Z,12.70
2022-09-27T15:54:21.420Z,12.60
2022-09-27T15:56:54.479Z,12.80
2022-09-27T15:59:25.600Z,12.80
2022-09-27T16:01:57.252Z,12.60
2022-09-27T16:04:26.137Z,12.20
2022-09-27T16:06:54.518Z,12.10
2022-09-27T16:09:22.648Z,12.20
2022-09-27T16:11:51.568Z,12.30
2022-09-27T16:14:20.002Z,12.30
2022-09-27T16:16:50.858Z,12.50
2022-09-27T16:19:20.284Z,12.60
2022-09-27T16:21:48.871Z,12.70
2022-09-27T16:24:17.062Z,12.90
2022-09-27T16:26:44.838Z,12.80
2022-09-27T16:29:14.358Z,12.90
2022-09-27T16:31:42.603Z,13.00
2022-09-27T16:34:11.152Z,13.20
2022-09-27T16:36:40.773Z,13.40
2022-09-27T16:39:12.640Z,13.20
2022-09-27T16:41:42.209Z,13.30
2022-09-27T16:44:11.755Z,13.30
2022-09-27T16:46:41.472Z,13.00
2022-09-27T16:49:30.280Z,12.90
2022-09-27T16:52:01.386Z,13.10
2022-09-27T16:54:29.387Z,12.90
2022-09-27T16:56:57.661Z,12.70
2022-09-27T16:59:25.666Z,12.40
2022-09-27T17:01:57.771Z,12.50
2022-09-27T17:04:26.468Z,12.20
2022-09-27T17:06:54.243Z,12.20
2022-09-27T17:09:23.353Z,11.90
2022-09-27T17:11:51.549Z,12.00
2022-09-27T17:14:19.635Z,12.20
2022-09-27T17:16:48.886Z,12.20
2022-09-27T17:19:18.165Z,11.80
2022-09-27T17:21:46.959Z,11.90
2022-09-27T17:24:14.796Z,11.80
2022-09-27T17:26:44.543Z,11.80
2022-09-27T17:29:13.219Z,12.00
2022-09-27T17:31:42.349Z,12.00
2022-09-27T17:34:13.047Z,11.80
2022-09-27T17:36:42.995Z,12.00
2022-09-27T17:39:13.623Z,11.90
2022-09-27T17:41:43.689Z,12.10
2022-09-27T17:44:14.435Z,12.00
2022-09-27T17:46:43.703Z,12.00
2022-09-27T17:49:30.202Z,11.90
2022-09-27T17:51:58.035Z,11.90
2022-09-27T17:54:27.853Z,11.90
2022-09-27T17:56:57.219Z,11.70
2022-09-27T17:59:25.945Z,11.60
2022-09-27T18:01:53.926Z,11.90
2022-09-27T18:04:21.800Z,11.80
2022-09-27T18:06:49.674Z,11.50
2022-09-27T18:09:18.684Z,11.70
2022-09-27T18:11:46.751Z,11.60
2022-09-27T18:14:16.231Z,11.70
2022-09-27T18:16:44.776Z,11.60
2022-09-27T18:19:14.855Z,11.40
2022-09-27T18:21:42.995Z,11.70
2022-09-27T18:24:11.559Z,11.50
2022-09-27T18:26:40.449Z,11.40
2022-09-27T18:29:10.677Z,11.30
2022-09-27T18:31:42.833Z,11.20
2022-09-27T18:34:12.913Z,11.40
2022-09-27T18:36:42.305Z,11.00
2022-09-27T18:39:13.669Z,11.40
2022-09-27T18:41:41.609Z,11.10
2022-09-27T18:44:12.069Z,11.30
2022-09-27T18:46:41.440Z,11.20
2022-09-27T18:49:11.227Z,10.70
2022-09-27T18:51:42.220Z,11.20
2022-09-27T18:54:15.160Z,11.10
2022-09-27T18:56:42.995Z,11.00
2022-09-27T18:59:11.603Z,11.10
2022-09-27T19:01:44.822Z,11.40
2022-09-27T19:04:15.045Z,11.20
2022-09-27T19:06:42.850Z,11.40
2022-09-27T19:09:12.377Z,11.30
2022-09-27T19:11:40.575Z,11.30
2022-09-27T19:14:08.611Z,11.10
2022-09-27T19:16:36.327Z,11.50
2022-09-27T19:19:05.558Z,11.20
2022-09-27T19:21:33.474Z,11.00
2022-09-27T19:24:01.311Z,11.30
2022-09-27T19:26:29.604Z,11.30
2022-09-27T19:28:58.720Z,11.10
2022-09-27T19:31:29.462Z,11.30
2022-09-27T19:34:00.517Z,11.20
2022-09-27T19:36:29.950Z,11.10
2022-09-27T19:38:58.382Z,11.30
2022-09-27T19:41:26.902Z,11.30
2022-09-27T19:43:56.684Z,11.20
2022-09-27T19:46:25.929Z,11.10
2022-09-27T19:48:55.174Z,11.10
2022-09-27T19:51:24.787Z,11.30
2022-09-27T19:53:54.789Z,11.10
2022-09-27T19:56:23.634Z,10.60
2022-09-27T19:58:51.879Z,11.10
2022-09-27T20:01:21.646Z,11.30
2022-09-27T20:03:51.067Z,11.30
2022-09-27T20:06:20.304Z,11.20
2022-09-27T20:08:48.756Z,11.30
2022-09-27T20:11:19.369Z,11.20
2022-09-27T20:13:47.230Z,11.30
2022-09-27T20:16:16.487Z,11.30
2022-09-27T20:18:46.121Z,11.30
2022-09-27T20:21:14.791Z,11.40
2022-09-27T20:23:43.177Z,10.70
2022-09-27T20:26:12.978Z,11.30
2022-09-27T20:28:43.692Z,11.40
2022-09-27T20:31:12.827Z,11.10
2022-09-27T20:33:43.760Z,11.30
2022-09-27T20:36:13.356Z,11.20
2022-09-27T20:38:42.356Z,11.10
2022-09-27T20:41:10.880Z,11.00
2022-09-27T20:43:39.554Z,11.00
2022-09-27T20:46:11.156Z,11.00
2022-09-27T20:48:40.062Z,11.10
2022-09-27T20:51:08.568Z,11.10
2022-09-27T20:53:36.532Z,10.70
2022-09-27T20:56:04.735Z,11.20
2022-09-27T20:58:33.152Z,10.90
2022-09-27T21:01:06.626Z,11.00
2022-09-27T21:03:35.826Z,10.80
2022-09-27T21:06:04.527Z,10.90
2022-09-27T21:08:34.040Z,10.90
2022-09-27T21:11:06.319Z,10.90
2022-09-27T21:13:34.092Z,11.00
2022-09-27T21:16:02.737Z,10.90
2022-09-27T21:18:30.606Z,11.10
2022-09-27T21:21:00.972Z,10.80
2022-09-27T21:23:29.941Z,10.90
2022-09-27T21:26:06.092Z,11.00
2022-09-27T21:28:34.370Z,10.80
2022-09-27T21:31:06.378Z,11.00
2022-09-27T21:33:34.868Z,11.10
2022-09-27T21:36:05.848Z,11.00
2022-09-27T21:38:34.346Z,10.80
2022-09-27T21:41:03.974Z,10.80
2022-09-27T21:43:33.663Z,10.50
2022-09-27T21:46:06.269Z,10.70
2022-09-27T21:48:35.390Z,10.60
2022-09-27T21:51:06.688Z,10.50
2022-09-27T21:53:41.630Z,10.10
2022-09-27T21:56:11.208Z,10.40
2022-09-27T21:58:41.472Z,10.30
2022-09-27T22:01:10.991Z,10.10
2022-09-27T22:03:40.127Z,10.10
2022-09-27T22:06:12.804Z,10.30
2022-09-27T22:08:40.594Z,10.30
2022-09-27T22:11:09.760Z,10.20
2022-09-27T22:13:37.723Z,10.30
2022-09-27T22:16:06.649Z,10.30
2022-09-27T22:18:37.171Z,10.30
2022-09-27T22:21:05.761Z,10.20
2022-09-27T22:23:35.321Z,10.20
2022-09-27T22:26:12.545Z,10.10
2022-09-27T22:28:40.460Z,10.20
2022-09-27T22:31:09.474Z,10.50
2022-09-27T22:33:37.231Z,10.30
2022-09-27T22:36:06.014Z,10.30
2022-09-27T22:38:35.373Z,10.20
2022-09-27T22:41:04.204Z,10.20
2022-09-27T22:43:32.856Z,10.30
2022-09-27T22:46:01.131Z,10.40
2022-09-27T22:48:29.087Z,10.30
2022-09-27T22:50:57.797Z,10.30
2022-09-27T22:53:25.996Z,10.40
2022-09-27T22:56:01.958Z,10.40
2022-09-27T22:58:32.444Z,10.40
2022-09-27T23:01:00.565Z,10.50
2022-09-27T23:03:28.429Z,10.50
2022-09-27T23:06:02.506Z,10.20
2022-09-27T23:08:30.447Z,10.10
2022-09-27T23:11:04.961Z,10.40
2022-09-27T23:13:33.703Z,10.70
2022-09-27T23:16:02.847Z,10.50
2022-09-27T23:18:30.787Z,10.50
2022-09-27T23:21:03.176Z,10.50
2022-09-27T23:23:31.843Z,10.60
2022-09-27T23:26:00.751Z,10.70
2022-09-27T23:28:31.248Z,10.10
2022-09-27T23:31:05.498Z,10.60
2022-09-27T23:33:33.949Z,10.40
2022-09-27T23:36:02.435Z,10.80
2022-09-27T23:38:31.707Z,10.50
2022-09-27T23:40:59.947Z,10.50
2022-09-27T23:43:29.096Z,10.50
2022-09-27T23:45:57.315Z,10.50
2022-09-27T23:48:25.509Z,10.60
2022-09-27T23:50:53.774Z,10.50
2022-09-27T23:53:22.412Z,10.50
2022-09-27T23:56:02.098Z,10.60
2022-09-27T23:58:33.555Z,10.50
